Time;durP1;ratioP1;P1;durP2;ratioP2;P2;SDS_P1;SDS_P2;PMS_P1;PMS_P2;Temp;Humidity;BMP_temperature;BMP_pressure;BME280_temperature;BME280_humidity;BME280_pressure;Samples;Min_cycle;Max_cycle;Signal;HPM_P1;HPM_P2
2022/09/08 00:01:26;;;;;;;10.90;3.45;;;;;;;16.20;100.00;100736.41;5059735;28;20040;-87
2022/09/08 00:03:57;;;;;;;13.07;3.85;;;;;;;16.09;100.00;100740.94;5077046;28;20085;-89
2022/09/08 00:06:23;;;;;;;16.40;4.60;;;;;;;16.12;100.00;100754.13;5076886;28;20115;-87
2022/09/08 00:08:55;;;;;;;10.85;4.03;;;;;;;16.14;100.00;100759.34;5076590;28;20118;-87
2022/09/08 00:11:28;;;;;;;15.13;4.35;;;;;;;16.12;100.00;100754.13;5076156;28;20040;-87
2022/09/08 00:13:57;;;;;;;13.20;3.90;;;;;;;16.05;100.00;100755.41;5077367;28;20140;-87
2022/09/08 00:16:26;;;;;;;10.07;4.00;;;;;;;16.08;100.00;100763.09;5095094;28;20048;-87
2022/09/08 00:18:52;;;;;;;15.52;4.30;;;;;;;16.22;100.00;100747.09;5076673;28;20422;-87
2022/09/08 00:21:19;;;;;;;14.47;5.07;;;;;;;16.40;100.00;100752.25;5059748;28;20123;-87
2022/09/08 00:23:48;;;;;;;13.00;4.68;;;;;;;16.36;100.00;100736.56;5076543;28;20028;-87
2022/09/08 00:26:26;;;;;;;;;;;;;;;;;;;;;
2022/09/08 00:29:07;;;;;;;;;;;;;;;;;;;;;
2022/09/08 00:31:37;;;;;;;12.02;3.83;;;;;;;16.39;100.00;100715.00;5095233;28;20369;-87
2022/09/08 00:34:12;;;;;;;16.27;4.60;;;;;;;16.41;100.00;100721.03;5076033;28;20032;-87
2022/09/08 00:36:40;;;;;;;11.02;3.75;;;;;;;16.37;100.00;100719.06;5076149;28;20046;-87
2022/09/08 00:39:15;;;;;;;12.93;4.10;;;;;;;16.44;100.00;100722.44;5093957;28;20028;-88
2022/09/08 00:41:46;;;;;;;14.80;4.40;;;;;;;16.54;100.00;100721.72;5076047;28;20032;-88
2022/09/08 00:45:08;;;;;;;14.05;4.30;;;;;;;16.57;100.00;100726.69;5075767;28;20032;-88
2022/09/08 00:47:55;;;;;;;;;;;;;;;;;;;;;
2022/09/08 00:50:25;;;;;;;9.75;3.47;;;;;;;16.59;100.00;100703.41;5090303;28;20052;-87
2022/09/08 00:53:00;;;;;;;11.90;4.03;;;;;;;16.60;100.00;100693.31;5076195;28;20043;-87
2022/09/08 00:55:31;;;;;;;9.65;3.30;;;;;;;16.49;100.00;100695.13;5076164;28;20465;-87
2022/09/08 00:57:57;;;;;;;10.88;3.58;;;;;;;16.43;100.00;100702.47;5094355;28;20107;-87
2022/09/08 01:00:25;;;;;;;15.90;4.27;;;;;;;16.56;100.00;100695.72;5075857;28;20067;-87
2022/09/08 01:02:52;;;;;;;9.07;3.70;;;;;;;16.55;100.00;100695.97;5075939;28;20071;-87
2022/09/08 01:05:25;;;;;;;9.65;3.47;;;;;;;16.46;100.00;100681.91;5074794;28;20031;-88
2022/09/08 01:14:14;;;;;;;5.60;2.30;;;;;;;16.10;100.00;100682.38;5052385;28;20040;-87
2022/09/08 01:16:51;;;;;;;9.15;2.80;;;;;;;16.14;100.00;100683.53;5072169;28;20075;-87
2022/09/08 01:19:31;;;;;;;9.00;2.95;;;;;;;16.25;100.00;100681.72;5072811;28;20032;-87
2022/09/08 01:22:18;;;;;;;11.35;3.50;;;;;;;16.39;100.00;100668.47;5073312;28;20036;-87
2022/09/08 01:24:59;;;;;;;11.63;3.67;;;;;;;16.45;100.00;100672.88;5073071;28;20400;-87
2022/09/08 01:27:32;;;;;;;9.63;3.08;;;;;;;16.44;100.00;100656.72;5072541;28;20021;-88
2022/09/08 01:30:09;;;;;;;8.30;3.22;;;;;;;16.44;100.00;100640.28;5073630;28;20541;-87
2022/09/08 01:32:43;;;;;;;10.07;3.08;;;;;;;16.44;100.00;100645.78;5072191;28;20029;-87
2022/09/08 01:35:27;;;;;;;11.30;3.13;;;;;;;16.40;100.00;100642.75;5072393;28;20028;-88
2022/09/08 01:37:55;;;;;;;10.33;3.30;;;;;;;16.49;100.00;100649.38;5072397;28;20450;-88
2022/09/08 01:40:21;;;;;;;7.50;2.80;;;;;;;16.38;100.00;100665.97;5055574;28;20040;-88
2022/09/08 01:42:49;;;;;;;7.60;3.10;;;;;;;16.34;100.00;100657.44;5073072;28;20394;-88
2022/09/08 01:45:17;;;;;;;10.20;3.00;;;;;;;16.37;100.00;100643.25;5071957;28;20770;-87
2022/09/08 01:47:42;;;;;;;7.07;2.75;;;;;;;16.38;100.00;100649.56;5072012;28;20033;-87
2022/09/08 01:50:20;;;;;;;9.05;2.88;;;;;;;16.34;100.00;100646.47;5072013;28;20547;-87
2022/09/08 01:52:49;;;;;;;10.43;3.30;;;;;;;16.43;100.00;100647.69;5072585;28;20036;-87
2022/09/08 01:55:22;;;;;;;7.28;3.05;;;;;;;16.45;100.00;100647.44;5071674;28;20098;-88
2022/09/08 01:57:50;;;;;;;9.68;3.08;;;;;;;16.44;100.00;100640.28;5072264;28;20040;-87
2022/09/08 02:00:20;;;;;;;9.05;2.97;;;;;;;16.43;100.00;100650.44;5072161;28;20024;-87
2022/09/08 02:02:53;;;;;;;8.02;3.25;;;;;;;16.49;100.00;100637.63;5055587;28;20044;-87
2022/09/08 02:05:29;;;;;;;;;;;;;;;;;;;;;
2022/09/08 02:07:57;;;;;;;8.55;2.97;;;;;;;16.44;100.00;100629.34;5073639;28;20365;-87
2022/09/08 02:10:25;;;;;;;5.93;2.72;;;;;;;16.40;100.00;100618.09;5071556;28;20389;-87
2022/09/08 02:13:00;;;;;;;6.53;2.58;;;;;;;16.37;100.00;100601.34;5071592;28;20493;-87
2022/09/08 02:15:28;;;;;;;11.18;2.42;;;;;;;16.26;100.00;100604.00;5055549;28;20060;-88
2022/09/08 02:17:59;;;;;;;7.67;2.50;;;;;;;16.23;100.00;100604.50;5076668;28;20040;-88
2022/09/08 02:20:26;;;;;;;10.88;3.08;;;;;;;16.20;100.00;100607.75;5075730;28;20466;-88
2022/09/08 02:22:55;;;;;;;8.23;2.63;;;;;;;16.16;100.00;100601.16;5075281;28;20028;-87
2022/09/08 02:25:25;;;;;;;5.90;2.90;;;;;;;16.11;100.00;100606.59;5076040;28;20085;-88
2022/09/08 02:27:54;;;;;;;6.90;2.92;;;;;;;16.05;100.00;100607.63;5076099;28;20068;-87
2022/09/08 02:30:40;;;;;;;10.00;3.13;;;;;;;15.97;100.00;100603.41;5075139;28;20028;-88
2022/09/08 02:33:11;;;;;;;10.85;2.60;;;;;;;15.89;100.00;100609.38;5075930;28;20081;-88
2022/09/08 02:35:41;;;;;;;9.98;3.30;;;;;;;15.76;100.00;100599.59;5074798;28;20017;-87
2022/09/08 02:38:18;;;;;;;12.98;3.80;;;;;;;15.72;100.00;100607.50;5077217;28;20099;-88
2022/09/08 02:40:53;;;;;;;7.78;3.25;;;;;;;15.74;100.00;100601.78;5059820;28;20385;-88
2022/09/08 02:43:24;;;;;;;8.57;3.00;;;;;;;15.59;100.00;100605.97;5075693;28;20044;-88
2022/09/08 02:45:50;;;;;;;11.25;3.45;;;;;;;15.58;100.00;100607.06;5076411;28;20035;-88
2022/09/08 02:48:16;;;;;;;13.15;3.70;;;;;;;15.49;100.00;100594.91;5074836;28;20025;-88
2022/09/08 02:50:41;;;;;;;9.20;3.30;;;;;;;15.44;100.00;100608.50;5074497;28;20119;-87
2022/09/08 02:53:09;;;;;;;9.37;3.17;;;;;;;15.41;100.00;100603.56;5075797;28;20079;-87
2022/09/08 02:55:44;;;;;;;10.03;3.30;;;;;;;15.37;100.00;100602.44;5075720;28;20832;-88
2022/09/08 02:58:14;;;;;;;8.35;3.50;;;;;;;15.35;100.00;100610.84;5074753;28;20071;-88
2022/09/08 03:00:50;;;;;;;8.60;3.55;;;;;;;15.40;100.00;100600.00;5074662;28;20016;-87
2022/09/08 03:03:15;;;;;;;13.10;4.30;;;;;;;15.43;100.00;100609.63;5074332;28;20032;-87
2022/09/08 03:05:41;;;;;;;8.60;3.80;;;;;;;15.39;100.00;100592.06;5074852;28;20047;-88
2022/09/08 03:08:10;;;;;;;8.07;4.00;;;;;;;15.37;100.00;100599.69;5074782;28;20021;-88
2022/09/08 03:10:35;;;;;;;9.07;3.80;;;;;;;15.35;100.00;100601.84;5074496;28;20031;-88
2022/09/08 03:13:04;;;;;;;13.45;3.70;;;;;;;15.27;100.00;100609.41;5074470;28;20028;-88
2022/09/08 03:15:41;;;;;;;8.38;3.97;;;;;;;15.24;100.00;100609.91;5081786;28;20044;-88
2022/09/08 03:18:10;;;;;;;9.25;3.90;;;;;;;15.19;100.00;100609.00;5077924;28;20024;-88
2022/09/08 03:20:59;;;;;;;10.43;4.53;;;;;;;15.19;100.00;100606.25;5077635;28;20062;-88
2022/09/08 03:23:25;;;;;;;10.38;4.47;;;;;;;15.20;100.00;100607.94;5063444;28;20028;-88
2022/09/08 03:25:51;;;;;;;8.50;4.40;;;;;;;15.23;100.00;100612.88;5061505;28;20055;-88
2022/09/08 03:28:30;;;;;;;11.33;4.10;;;;;;;15.17;100.00;100605.69;5076515;28;20462;-88
2022/09/08 03:30:59;;;;;;;13.18;4.70;;;;;;;15.14;100.00;100609.75;5078135;28;20047;-88
2022/09/08 03:33:28;;;;;;;12.50;4.85;;;;;;;15.18;100.00;100621.03;5095235;28;20036;-88
2022/09/08 03:35:54;;;;;;;10.90;5.07;;;;;;;15.12;100.00;100625.59;5061196;28;20114;-88
2022/09/08 03:38:22;;;;;;;10.23;4.10;;;;;;;15.11;100.00;100636.78;5077473;28;20097;-88
2022/09/08 03:40:50;;;;;;;13.38;4.45;;;;;;;15.09;100.00;100645.22;5095394;28;20059;-87
2022/09/08 03:43:18;;;;;;;9.75;4.82;;;;;;;15.06;100.00;100660.19;5095123;28;20448;-88
2022/09/08 03:45:48;;;;;;;6.97;4.82;;;;;;;15.01;100.00;100648.38;5077338;28;20123;-89
2022/09/08 03:48:16;;;;;;;17.08;5.13;;;;;;;14.98;100.00;100619.63;5095456;28;20025;-88
2022/09/08 03:50:51;;;;;;;14.33;5.17;;;;;;;14.96;100.00;100610.06;5077201;28;20076;-90
2022/09/08 03:53:40;;;;;;;11.63;5.20;;;;;;;14.93;100.00;100605.91;5061611;28;20059;-89
2022/09/08 03:56:13;;;;;;;13.20;4.65;;;;;;;14.87;100.00;100612.38;5075882;28;20032;-89
2022/09/08 03:58:44;;;;;;;12.02;4.65;;;;;;;14.82;100.00;100613.13;5095311;28;20024;-88
2022/09/08 04:01:34;;;;;;;11.27;5.20;;;;;;;14.75;100.00;100598.81;5076549;28;20490;-88
2022/09/08 04:04:03;;;;;;;15.03;5.30;;;;;;;14.82;100.00;100599.47;5077593;28;20452;-88
2022/09/08 04:06:39;;;;;;;;;;;;;;;;;;;;;
2022/09/08 04:09:07;;;;;;;17.70;5.70;;;;;;;14.75;100.00;100596.09;5063710;28;20389;-88
2022/09/08 04:11:35;;;;;;;12.93;5.57;;;;;;;14.75;100.00;100598.81;5094402;28;20465;-88
2022/09/08 04:14:11;;;;;;;13.98;5.50;;;;;;;14.74;100.00;100595.25;5076246;28;20119;-88
2022/09/08 04:16:49;;;;;;;14.60;5.77;;;;;;;14.71;100.00;100598.47;5094591;28;20048;-88
2022/09/08 04:19:30;;;;;;;13.80;5.32;;;;;;;14.70;100.00;100609.66;5077177;28;20442;-88
2022/09/08 04:22:03;;;;;;;15.07;5.60;;;;;;;14.65;100.00;100601.38;5061771;28;20044;-87
2022/09/08 04:24:36;;;;;;;11.95;5.25;;;;;;;14.66;100.00;100597.56;5076006;28;20040;-88
2022/09/08 04:27:11;;;;;;;14.40;5.40;;;;;;;14.68;100.00;100607.16;5094271;28;20031;-87
2022/09/08 04:29:50;;;;;;;12.60;5.40;;;;;;;14.68;100.00;100606.34;5076869;28;20027;-87
2022/09/08 04:32:16;;;;;;;19.23;6.43;;;;;;;14.68;100.00;100612.63;5076225;28;20024;-87
2022/09/08 04:34:42;;;;;;;12.35;5.57;;;;;;;14.69;100.00;100619.75;5076139;28;20457;-87
2022/09/08 04:37:07;;;;;;;20.70;5.93;;;;;;;14.70;100.00;100621.41;5094248;28;20051;-88
2022/09/08 04:39:33;;;;;;;16.88;6.55;;;;;;;14.72;100.00;100615.69;5076242;28;20040;-87
2022/09/08 04:42:03;;;;;;;19.13;6.17;;;;;;;14.73;100.00;100620.91;5075924;28;20020;-88
2022/09/08 04:44:39;;;;;;;18.15;6.80;;;;;;;14.69;100.00;100619.75;5059663;28;20054;-88
2022/09/08 04:47:16;;;;;;;20.17;6.93;;;;;;;14.73;100.00;100618.19;5060369;28;20051;-87
2022/09/08 04:49:50;;;;;;;16.33;6.07;;;;;;;14.72;100.00;100621.16;5076421;28;20149;-88
2022/09/08 04:52:25;;;;;;;17.25;6.95;;;;;;;14.72;100.00;100623.91;5076232;28;20066;-88
2022/09/08 04:54:53;;;;;;;19.20;6.97;;;;;;;14.71;100.00;100619.50;5094009;28;20031;-88
2022/09/08 04:57:21;;;;;;;22.10;7.43;;;;;;;14.78;100.00;100616.59;5093609;28;20036;-88
2022/09/08 04:59:54;;;;;;;19.10;7.00;;;;;;;14.76;100.00;100621.47;5075858;28;20068;-88
2022/09/08 05:02:29;;;;;;;;;;;;;;;;;;;;;
2022/09/08 05:05:31;;;;;;;17.20;6.13;;;;;;;14.80;100.00;100625.38;5094684;28;20468;-91
2022/09/08 05:08:22;;;;;;;16.53;6.70;;;;;;;14.84;100.00;100632.00;5059113;28;20036;-88
2022/09/08 05:10:57;;;;;;;15.20;6.50;;;;;;;14.88;100.00;100631.25;5060459;28;20484;-89
2022/09/08 05:13:25;;;;;;;15.65;6.88;;;;;;;14.89;100.00;100630.16;5077476;28;20040;-87
2022/09/08 05:15:54;;;;;;;14.27;6.63;;;;;;;14.89;100.00;100630.16;5075058;28;20113;-86
2022/09/08 05:18:19;;;;;;;19.38;7.40;;;;;;;14.89;100.00;100632.88;5075203;28;20123;-87
2022/09/08 05:20:52;;;;;;;20.37;7.30;;;;;;;14.90;100.00;100640.00;5075302;28;20062;-87
2022/09/08 05:23:27;;;;;;;15.88;6.85;;;;;;;14.93;100.00;100640.59;5075818;28;20060;-87
2022/09/08 05:26:06;;;;;;;17.90;7.77;;;;;;;14.94;100.00;100644.97;5075496;28;20024;-87
2022/09/08 05:28:34;;;;;;;15.85;7.00;;;;;;;15.03;100.00;100643.50;5075410;28;20035;-87
2022/09/08 05:31:18;;;;;;;16.65;7.88;;;;;;;14.98;100.00;100635.22;5075301;28;20028;-87
2022/09/08 05:33:47;;;;;;;24.65;7.38;;;;;;;14.97;100.00;100631.66;5093174;28;20016;-86
2022/09/08 05:36:27;;;;;;;24.42;8.75;;;;;;;14.98;100.00;100627.81;5093536;28;20024;-86
2022/09/08 05:38:52;;;;;;;16.03;7.27;;;;;;;14.96;100.00;100630.00;5075132;28;20048;-86
2022/09/08 05:41:18;;;;;;;17.50;7.68;;;;;;;14.97;100.00;100628.94;5076129;28;20028;-86
2022/09/08 05:43:47;;;;;;;21.10;8.50;;;;;;;14.98;100.00;100632.47;5075568;28;20031;-86
2022/09/08 05:46:13;;;;;;;27.23;8.13;;;;;;;14.99;100.00;100634.97;5075077;28;20028;-87
2022/09/08 05:48:43;;;;;;;21.30;8.63;;;;;;;15.00;100.00;100633.88;5075519;28;20028;-88
2022/09/08 05:51:17;;;;;;;24.02;8.15;;;;;;;15.01;100.00;100631.97;5077020;28;20028;-86
2022/09/08 05:53:43;;;;;;;20.67;9.07;;;;;;;15.08;100.00;100638.09;5079848;28;20047;-87
2022/09/08 05:56:08;;;;;;;22.23;9.57;;;;;;;15.06;100.00;100632.88;5079019;28;20066;-86
2022/09/08 05:58:38;;;;;;;22.27;9.37;;;;;;;15.04;100.00;100639.66;5078824;28;20400;-86
2022/09/08 06:01:14;;;;;;;21.95;9.43;;;;;;;15.07;100.00;100628.22;5062915;28;20078;-86
2022/09/08 06:03:39;;;;;;;24.13;9.70;;;;;;;15.11;100.00;100626.66;5097004;28;20100;-86
2022/09/08 06:06:09;;;;;;;23.33;9.45;;;;;;;15.12;100.00;100632.94;5079309;28;20066;-86
2022/09/08 06:08:38;;;;;;;23.47;9.33;;;;;;;15.08;100.00;100649.03;5096926;28;20028;-86
2022/09/08 06:11:05;;;;;;;20.27;8.50;;;;;;;15.12;100.00;100639.25;5078703;28;20426;-86
2022/09/08 06:13:35;;;;;;;25.67;9.63;;;;;;;15.12;100.00;100647.44;5078320;28;20036;-87
2022/09/08 06:16:32;;;;;;;23.33;9.45;;;;;;;15.11;100.00;100634.84;5078589;28;20055;-87
2022/09/08 06:19:04;;;;;;;20.63;9.27;;;;;;;15.13;100.00;100640.88;5079088;28;20494;-87
2022/09/08 06:21:39;;;;;;;22.60;9.87;;;;;;;15.14;100.00;100642.56;5096500;28;20032;-88
2022/09/08 06:24:15;;;;;;;29.35;10.05;;;;;;;15.17;100.00;100636.56;5062684;28;20502;-88
2022/09/08 06:26:51;;;;;;;22.08;9.73;;;;;;;15.23;100.00;100640.22;5095891;28;20085;-87
2022/09/08 06:29:48;;;;;;;20.80;9.40;;;;;;;15.23;100.00;100632.84;5078254;28;20088;-88
2022/09/08 06:32:49;;;;;;;23.30;9.77;;;;;;;15.29;100.00;100641.94;5078817;28;20028;-87
2022/09/08 06:35:42;;;;;;;25.47;9.83;;;;;;;15.26;100.00;100643.28;5077823;28;20036;-88
2022/09/08 06:38:27;;;;;;;21.58;9.98;;;;;;;15.27;100.00;100641.38;5078442;28;20441;-88
2022/09/08 06:41:14;;;;;;;28.13;10.18;;;;;;;15.34;100.00;100642.03;5078765;28;20020;-87
2022/09/08 06:43:49;;;;;;;19.80;10.10;;;;;;;15.35;100.00;100640.91;5078063;28;20039;-88
2022/09/08 06:46:39;;;;;;;22.20;9.93;;;;;;;15.32;100.00;100654.28;5078039;28;20028;-88
2022/09/08 06:49:14;;;;;;;23.90;10.30;;;;;;;15.39;100.00;100647.53;5077670;28;20024;-88
2022/09/08 06:52:00;;;;;;;23.95;10.48;;;;;;;15.36;100.00;100653.53;5062279;28;20102;-89
2022/09/08 06:54:48;;;;;;;22.70;10.95;;;;;;;15.35;100.00;100656.50;5077669;28;20024;-88
2022/09/08 06:57:25;;;;;;;28.05;11.63;;;;;;;15.40;100.00;100660.16;5096516;28;20032;-91
2022/09/08 07:00:02;;;;;;;23.73;11.32;;;;;;;15.42;100.00;100662.63;5077958;28;20123;-87
2022/09/08 07:02:36;;;;;;;33.47;12.03;;;;;;;15.45;100.00;100656.66;5078323;28;20381;-87
2022/09/08 07:05:41;;;;;;;26.38;11.70;;;;;;;15.43;100.00;100656.91;5077741;28;20028;-87
2022/09/08 07:09:01;;;;;;;;;;;;;;;;;;;;;
2022/09/08 07:12:06;;;;;;;27.88;13.00;;;;;;;15.51;100.00;100658.38;4994423;28;20503;-88
2022/09/08 07:15:08;;;;;;;24.90;11.75;;;;;;;15.50;100.00;100664.09;4978366;28;20453;-89
2022/09/08 07:18:00;;;;;;;24.83;12.10;;;;;;;15.43;100.00;100656.91;4994011;28;20074;-88
2022/09/08 07:20:31;;;;;;;26.85;11.85;;;;;;;15.48;100.00;100658.06;4938580;29;20481;-89
2022/09/08 07:23:12;;;;;;;31.55;12.93;;;;;;;15.49;100.00;100660.53;5014641;28;20033;-88
2022/09/08 07:26:17;;;;;;;25.52;12.15;;;;;;;15.41;100.00;100661.81;5064581;28;20051;-89
2022/09/08 07:28:51;;;;;;;29.75;12.10;;;;;;;15.29;100.00;100649.31;5077821;28;20461;-88
2022/09/08 07:31:33;;;;;;;;;;;;;;;;;;;;;
2022/09/08 07:34:36;;;;;;;27.48;13.63;;;;;;;15.40;100.00;100664.78;5095247;28;20030;-88
2022/09/08 07:37:17;;;;;;;32.88;15.40;;;;;;;15.59;100.00;100668.88;5077118;28;20392;-88
2022/09/08 07:40:16;;;;;;;32.67;15.57;;;;;;;15.76;100.00;100665.25;5076727;28;20120;-88
2022/09/08 07:42:55;;;;;;;31.65;15.60;;;;;;;15.85;100.00;100665.66;5077501;28;20040;-89
2022/09/08 07:45:45;;;;;;;27.73;13.50;;;;;;;15.68;100.00;100655.59;5077794;28;20165;-89
2022/09/08 07:48:20;;;;;;;21.33;12.80;;;;;;;15.77;100.00;100655.97;5077753;28;20472;-89
2022/09/08 07:51:27;;;;;;;;;;;;;;;;;;;;;
2022/09/08 07:54:50;;;;;;;21.75;12.05;;;;;;;15.60;100.00;100666.97;5092509;28;20491;-90
2022/09/08 07:58:27;;;;;;;;;;;;;;;;;;;;;
2022/09/08 08:01:34;;;;;;;;;;;;;;;;;;;;;
2022/09/08 08:04:33;;;;;;;18.20;11.32;;;;;;;15.40;100.00;100664.78;5095244;28;20033;-89
2022/09/08 08:11:03;;;;;;;;;;;;;;;;;;;;;
2022/09/08 08:14:09;;;;;;;15.68;9.98;;;;;;;15.71;100.00;100681.63;5031549;28;20101;-90
2022/09/08 08:26:49;;;;;;;14.48;9.75;;;;;;;15.53;100.00;100671.78;5074263;28;20051;-90
2022/09/08 08:29:53;;;;;;;9.27;7.72;;;;;;;15.57;100.00;100687.44;5072978;28;20492;-89
2022/09/08 08:33:02;;;;;;;12.83;7.07;;;;;;;15.66;100.00;100676.88;5073463;28;20122;-88
2022/09/08 08:36:19;;;;;;;;;;;;;;;;;;;;;
2022/09/08 08:39:00;;;;;;;12.40;7.60;;;;;;;16.24;100.00;100677.34;5074071;28;20043;-89
2022/09/08 08:41:53;;;;;;;11.32;7.00;;;;;;;16.36;100.00;100670.88;5072987;28;20028;-89
2022/09/08 08:44:49;;;;;;;;;;;;;;;;;;;;;
2022/09/08 08:47:24;;;;;;;7.60;5.37;;;;;;;16.88;100.00;100672.22;5073780;28;20036;-88
2022/09/08 08:50:12;;;;;;;8.95;5.15;;;;;;;16.90;100.00;100673.56;5073132;28;20418;-88
2022/09/08 08:53:14;;;;;;;;;;;;;;;;;;;;;
2022/09/08 08:55:49;;;;;;;7.70;5.30;;;;;;;16.89;100.00;100680.16;5073454;28;20033;-87
2022/09/08 08:58:49;;;;;;;7.75;6.07;;;;;;;16.89;100.00;100677.44;5072513;28;20092;-88
2022/09/08 09:01:58;;;;;;;5.77;5.00;;;;;;;16.93;100.00;100678.56;5072331;28;20047;-88
2022/09/08 09:04:58;;;;;;;9.00;4.40;;;;;;;16.84;100.00;100663.63;5072336;28;20040;-88
2022/09/08 09:08:18;;;;;;;8.18;3.20;;;;;;;17.04;100.00;100676.72;5072462;28;20055;-88
2022/09/08 09:10:49;;;;;;;5.93;3.17;;;;;;;17.14;99.11;100662.25;4976648;28;20031;-88
2022/09/08 09:13:37;;;;;;;8.90;3.00;;;;;;;17.20;99.71;100661.22;5072787;28;20421;-88
2022/09/08 09:16:28;;;;;;;7.87;3.13;;;;;;;17.16;98.22;100662.81;5071949;28;20059;-88
2022/09/08 09:19:18;;;;;;;6.30;3.03;;;;;;;17.16;98.00;100660.88;5072874;28;20028;-87
2022/09/08 09:21:54;;;;;;;6.55;2.88;;;;;;;17.17;99.61;100673.50;5072477;28;20044;-88
2022/09/08 09:24:56;;;;;;;9.30;2.40;;;;;;;17.12;95.99;100658.94;5072973;28;20119;-87
2022/09/08 09:28:01;;;;;;;4.63;2.75;;;;;;;17.03;95.03;100671.50;5077127;28;20044;-88
2022/09/08 09:31:08;;;;;;;5.83;2.50;;;;;;;16.90;95.44;100657.13;5077765;28;20032;-88
2022/09/08 09:33:52;;;;;;;7.43;3.05;;;;;;;16.90;96.14;100667.28;5040049;28;20040;-87
2022/09/08 09:36:39;;;;;;;5.75;2.90;;;;;;;16.90;96.87;100670.84;5076280;28;20127;-87
2022/09/08 09:39:32;;;;;;;10.50;2.88;;;;;;;16.92;95.98;100673.31;5076716;28;20029;-87
2022/09/08 09:42:17;;;;;;;13.35;2.90;;;;;;;17.08;97.42;100677.84;5076016;28;20028;-88
2022/09/08 09:45:04;;;;;;;10.23;3.00;;;;;;;17.22;95.04;100674.66;5076221;28;20029;-88
2022/09/08 09:48:12;;;;;;;8.05;2.40;;;;;;;17.38;94.19;100675.53;5075819;28;20091;-88
2022/09/08 09:51:15;;;;;;;7.72;2.13;;;;;;;17.66;93.29;100671.59;5075862;28;20120;-87
2022/09/08 09:54:21;;;;;;;7.05;2.05;;;;;;;18.21;92.54;100661.94;5076503;28;20123;-87
2022/09/08 09:57:20;;;;;;;4.10;1.88;;;;;;;18.41;87.34;100671.31;5075646;28;20398;-88
2022/09/08 10:00:13;;;;;;;8.53;1.57;;;;;;;18.38;86.77;100660.84;5075652;28;20085;-88
2022/09/08 10:03:27;;;;;;;5.35;2.25;;;;;;;18.27;87.16;100654.53;5076210;28;20527;-88
2022/09/08 10:06:19;;;;;;;4.78;1.75;;;;;;;18.36;85.13;100669.38;5075701;28;20034;-88
2022/09/08 10:08:58;;;;;;;7.55;1.90;;;;;;;18.30;84.52;100678.69;5075823;28;20032;-88
2022/09/08 10:11:57;;;;;;;5.80;1.70;;;;;;;18.29;85.10;100679.81;5075719;28;20099;-88
2022/09/08 10:14:49;;;;;;;8.10;1.80;;;;;;;18.37;82.73;100676.53;5077202;28;20036;-88
2022/09/08 10:17:45;;;;;;;7.57;2.28;;;;;;;18.48;84.60;100674.59;5074737;28;20055;-88
2022/09/08 10:20:36;;;;;;;7.07;1.98;;;;;;;18.79;82.90;100671.06;5076795;28;20462;-88
2022/09/08 10:23:46;;;;;;;4.65;1.70;;;;;;;18.67;83.23;100680.41;5075448;28;20044;-88
2022/09/08 10:26:26;;;;;;;8.15;1.60;;;;;;;18.85;80.51;100686.44;5074900;28;20132;-88
2022/09/08 10:29:13;;;;;;;5.50;1.90;;;;;;;18.97;79.77;100686.22;5075178;28;20036;-88
2022/09/08 10:32:04;;;;;;;4.45;1.98;;;;;;;19.00;79.92;100689.25;5075249;28;20040;-88
2022/09/08 10:35:15;;;;;;;10.07;2.10;;;;;;;19.01;79.26;100679.88;5075146;28;20431;-88
2022/09/08 10:38:19;;;;;;;8.32;1.95;;;;;;;19.05;80.33;100686.47;5050059;28;20083;-88
2022/09/08 10:41:09;;;;;;;6.15;1.90;;;;;;;19.15;78.00;100691.16;5074978;28;20421;-88
2022/09/08 10:43:46;;;;;;;6.60;1.90;;;;;;;19.08;77.90;100674.94;5075291;28;20454;-89
2022/09/08 10:46:39;;;;;;;4.63;1.80;;;;;;;19.43;79.39;100670.47;5074831;28;20029;-89
2022/09/08 10:49:28;;;;;;;4.78;1.55;;;;;;;19.54;78.30;100673.19;5074713;28;20032;-88
2022/09/08 10:52:28;;;;;;;6.75;1.67;;;;;;;19.28;79.72;100665.84;5075506;28;20060;-88
2022/09/08 10:55:15;;;;;;;5.32;1.88;;;;;;;19.19;81.26;100669.41;5074611;28;20036;-88
2022/09/08 10:58:18;;;;;;;;;;;;;;;;;;;;;
2022/09/08 11:01:27;;;;;;;;;;;;;;;;;;;;;
2022/09/08 11:04:18;;;;;;;11.95;2.38;;;;;;;18.38;88.53;100672.69;5076572;28;20028;-88
2022/09/08 11:07:25;;;;;;;9.65;2.65;;;;;;;18.28;90.29;100653.44;5074555;28;20029;-88
2022/09/08 11:10:26;;;;;;;5.70;2.00;;;;;;;18.61;88.50;100661.44;5074102;28;20127;-88
2022/09/08 11:13:16;;;;;;;6.77;2.37;;;;;;;19.53;83.55;100658.63;5074747;28;20033;-88
2022/09/08 11:16:15;;;;;;;5.93;2.35;;;;;;;22.25;79.11;100655.44;5073661;28;20147;-88
2022/09/08 11:18:44;;;;;;;6.78;1.75;;;;;;;23.78;64.99;100655.00;5075034;28;20501;-91
2022/09/08 11:21:45;;;;;;;9.10;2.00;;;;;;;22.37;67.59;100654.22;5074228;28;20056;-89
2022/09/08 11:24:45;;;;;;;;;;;;;;;;;;;;;
2022/09/08 11:28:00;;;;;;;4.23;2.00;;;;;;;20.40;69.62;100665.63;5076015;28;20042;-92
2022/09/08 11:30:48;;;;;;;7.80;2.33;;;;;;;20.18;71.69;100648.69;5074977;28;20051;-89
2022/09/08 11:33:41;;;;;;;7.05;2.13;;;;;;;20.79;72.21;100644.72;5074077;28;20426;-89
2022/09/08 11:37:03;;;;;;;;;;;;;;;;;;;;;
2022/09/08 11:39:50;;;;;;;7.20;1.98;;;;;;;23.47;62.56;100644.56;5045341;28;20044;-90
2022/09/08 11:42:44;;;;;;;;;;;;;;;;;;;;;
2022/09/08 11:45:51;;;;;;;6.32;2.30;;;;;;;21.85;68.27;100643.03;5074720;28;20039;-89
2022/09/08 11:49:22;;;;;;;7.60;2.15;;;;;;;23.14;64.39;100638.31;5072861;28;20032;-90
2022/09/08 11:56:08;;;;;;;4.10;2.05;;;;;;;31.64;51.62;100621.25;4992996;28;20056;-90
2022/09/08 11:58:39;;;;;;;7.73;2.20;;;;;;;34.80;35.36;100627.06;5089907;28;20036;-90
2022/09/08 12:01:20;;;;;;;4.80;2.33;;;;;;;33.63;36.42;100623.09;5073472;28;20454;-88
2022/09/08 12:04:19;;;;;;;4.72;2.40;;;;;;;33.97;36.19;100608.31;5073381;28;20165;-88
2022/09/08 12:07:16;;;;;;;4.55;2.42;;;;;;;34.42;35.75;100600.88;5072878;28;20086;-88
2022/09/08 12:09:47;;;;;;;8.70;2.42;;;;;;;31.37;34.53;100599.75;5072892;28;20033;-88
2022/09/08 12:12:41;;;;;;;6.33;2.30;;;;;;;30.88;37.57;100590.50;5072495;28;20037;-88
2022/09/08 12:15:35;;;;;;;5.10;2.47;;;;;;;31.74;40.66;100603.06;5072730;28;20393;-87
2022/09/08 12:18:29;;;;;;;;;;;;;;;;;;;;;
2022/09/08 12:21:26;;;;;;;5.07;2.40;;;;;;;30.80;34.98;100583.13;5074607;28;20016;-88
2022/09/08 12:24:04;;;;;;;;;;;;;;;;;;;;;
2022/09/08 12:27:15;;;;;;;6.13;2.20;;;;;;;27.04;40.18;100588.16;5074147;28;20031;-88
2022/09/08 12:30:06;;;;;;;3.88;1.75;;;;;;;24.79;43.70;100594.75;5073311;28;20390;-88
2022/09/08 12:32:53;;;;;;;3.05;1.83;;;;;;;24.01;46.38;100602.50;5073484;28;20047;-88
2022/09/08 12:35:32;;;;;;;5.45;1.60;;;;;;;23.47;49.18;100603.03;5072219;28;20039;-87
2022/09/08 12:38:14;;;;;;;;;;;;;;;;;;;;;
2022/09/08 12:40:47;;;;;;;3.83;1.40;;;;;;;27.52;42.63;100590.91;5074732;28;20037;-88
2022/09/08 12:43:49;;;;;;;6.10;1.70;;;;;;;30.10;36.55;100581.53;5072323;28;20043;-88
2022/09/08 12:47:09;;;;;;;;;;;;;;;;;;;;;
2022/09/08 12:49:55;;;;;;;4.32;1.70;;;;;;;28.40;38.13;100591.91;5074285;28;20044;-87
2022/09/08 12:53:15;;;;;;;6.75;1.70;;;;;;;30.46;35.43;100584.56;5072574;28;20028;-87
2022/09/08 12:56:01;;;;;;;4.73;2.03;;;;;;;31.69;32.74;100577.31;5073219;28;20046;-87
2022/09/08 12:58:36;;;;;;;4.32;1.80;;;;;;;32.64;30.23;100578.84;5077952;28;20039;-89
2022/09/08 13:01:23;;;;;;;5.72;2.05;;;;;;;34.32;29.25;100579.03;5075477;28;20037;-88
2022/09/08 13:04:24;;;;;;;4.10;2.05;;;;;;;34.87;27.35;100579.19;5079381;28;20085;-88
2022/09/08 13:07:08;;;;;;;4.15;1.80;;;;;;;35.29;25.98;100591.25;5077577;28;20032;-88
2022/09/08 13:10:06;;;;;;;3.47;2.00;;;;;;;33.94;27.70;100566.88;5076763;28;20033;-88
2022/09/08 13:13:26;;;;;;;3.33;2.00;;;;;;;35.87;25.34;100580.34;5045207;28;20042;-88
2022/09/08 13:16:01;;;;;;;5.85;2.17;;;;;;;35.27;25.94;100559.78;5071644;28;20060;-84
2022/09/08 13:18:48;;;;;;;2.50;1.83;;;;;;;34.96;25.86;100568.44;5072456;28;20470;-84
2022/09/08 13:21:23;;;;;;;5.25;2.17;;;;;;;32.64;28.73;100570.41;5072391;28;20512;-85
2022/09/08 13:23:54;;;;;;;4.27;2.30;;;;;;;29.85;32.16;100570.47;5073505;28;20119;-85